sensor_id;sensor_type;location;lat;lon;timestamp;P1;durP1;ratioP1;P2;durP2;ratioP2
24357;SDS011;13668;52.154;5.580;2022-10-31T00:02:20;15.10;;;11.27;;
24357;SDS011;13668;52.154;5.580;2022-10-31T00:04:46;13.85;;;11.15;;
24357;SDS011;13668;52.154;5.580;2022-10-31T00:07:12;16.83;;;11.07;;
24357;SDS011;13668;52.154;5.580;2022-10-31T00:09:38;20.85;;;11.35;;
24357;SDS011;13668;52.154;5.580;2022-10-31T00:12:04;16.33;;;11.10;;
24357;SDS011;13668;52.154;5.580;2022-10-31T00:14:30;16.63;;;10.63;;
24357;SDS011;13668;52.154;5.580;2022-10-31T00:16:56;16.10;;;11.25;;
24357;SDS011;13668;52.154;5.580;2022-10-31T00:19:22;14.73;;;11.32;;
24357;SDS011;13668;52.154;5.580;2022-10-31T00:21:48;12.45;;;10.30;;
24357;SDS011;13668;52.154;5.580;2022-10-31T00:24:14;18.15;;;10.57;;
24357;SDS011;13668;52.154;5.580;2022-10-31T00:26:40;16.05;;;11.23;;
24357;SDS011;13668;52.154;5.580;2022-10-31T00:29:06;13.55;;;11.35;;
24357;SDS011;13668;52.154;5.580;2022-10-31T00:31:32;16.20;;;10.75;;
24357;SDS011;13668;52.154;5.580;2022-10-31T00:34:00;17.83;;;11.45;;
24357;SDS011;13668;52.154;5.580;2022-10-31T00:36:27;15.73;;;11.05;;
24357;SDS011;13668;52.154;5.580;2022-10-31T00:38:53;15.73;;;11.50;;
24357;SDS011;13668;52.154;5.580;2022-10-31T00:41:19;12.00;;;10.57;;
24357;SDS011;13668;52.154;5.580;2022-10-31T00:43:45;16.10;;;11.25;;
24357;SDS011;13668;52.154;5.580;2022-10-31T00:46:12;17.75;;;11.30;;
24357;SDS011;13668;52.154;5.580;2022-10-31T00:48:38;17.35;;;12.18;;
24357;SDS011;13668;52.154;5.580;2022-10-31T00:51:04;18.63;;;11.77;;
24357;SDS011;13668;52.154;5.580;2022-10-31T00:53:33;15.77;;;12.02;;
24357;SDS011;13668;52.154;5.580;2022-10-31T00:56:02;14.05;;;11.82;;
24357;SDS011;13668;52.154;5.580;2022-10-31T00:58:28;14.45;;;11.35;;
24357;SDS011;13668;52.154;5.580;2022-10-31T01:00:54;13.50;;;10.05;;
24357;SDS011;13668;52.154;5.580;2022-10-31T01:03:23;17.13;;;11.98;;
24357;SDS011;13668;52.154;5.580;2022-10-31T01:06:23;14.18;;;10.68;;
24357;SDS011;13668;52.154;5.580;2022-10-31T01:08:42;15.77;;;11.48;;
24357;SDS011;13668;52.154;5.580;2022-10-31T01:11:12;14.82;;;10.45;;
24357;SDS011;13668;52.154;5.580;2022-10-31T01:13:39;15.80;;;10.63;;
24357;SDS011;13668;52.154;5.580;2022-10-31T01:16:05;12.93;;;10.40;;
24357;SDS011;13668;52.154;5.580;2022-10-31T01:18:32;14.05;;;10.77;;
24357;SDS011;13668;52.154;5.580;2022-10-31T01:21:01;14.63;;;11.48;;
24357;SDS011;13668;52.154;5.580;2022-10-31T01:23:28;13.23;;;10.25;;
24357;SDS011;13668;52.154;5.580;2022-10-31T01:28:26;17.67;;;11.48;;
24357;SDS011;13668;52.154;5.580;2022-10-31T01:30:52;13.13;;;10.07;;
24357;SDS011;13668;52.154;5.580;2022-10-31T01:33:18;14.80;;;10.15;;
24357;SDS011;13668;52.154;5.580;2022-10-31T01:35:43;14.85;;;10.80;;
24357;SDS011;13668;52.154;5.580;2022-10-31T01:38:09;13.95;;;11.38;;
24357;SDS011;13668;52.154;5.580;2022-10-31T01:40:35;15.77;;;10.98;;
24357;SDS011;13668;52.154;5.580;2022-10-31T01:43:01;16.88;;;10.75;;
24357;SDS011;13668;52.154;5.580;2022-10-31T01:45:27;16.02;;;10.30;;
24357;SDS011;13668;52.154;5.580;2022-10-31T01:47:53;14.35;;;10.57;;
24357;SDS011;13668;52.154;5.580;2022-10-31T01:50:30;15.63;;;10.73;;
24357;SDS011;13668;52.154;5.580;2022-10-31T01:52:57;14.48;;;10.85;;
24357;SDS011;13668;52.154;5.580;2022-10-31T01:55:25;14.20;;;10.10;;
24357;SDS011;13668;52.154;5.580;2022-10-31T01:57:53;12.82;;;10.02;;
24357;SDS011;13668;52.154;5.580;2022-10-31T02:00:20;15.70;;;10.70;;
24357;SDS011;13668;52.154;5.580;2022-10-31T02:02:47;12.38;;;9.85;;
24357;SDS011;13668;52.154;5.580;2022-10-31T02:05:23;12.65;;;10.25;;
24357;SDS011;13668;52.154;5.580;2022-10-31T02:07:53;12.35;;;10.02;;
24357;SDS011;13668;52.154;5.580;2022-10-31T02:10:21;16.40;;;10.90;;
24357;SDS011;13668;52.154;5.580;2022-10-31T02:12:47;15.23;;;10.13;;
24357;SDS011;13668;52.154;5.580;2022-10-31T02:15:14;12.48;;;9.88;;
24357;SDS011;13668;52.154;5.580;2022-10-31T02:17:40;13.63;;;10.13;;
24357;SDS011;13668;52.154;5.580;2022-10-31T02:20:16;10.98;;;9.40;;
24357;SDS011;13668;52.154;5.580;2022-10-31T02:23:10;12.88;;;9.32;;
24357;SDS011;13668;52.154;5.580;2022-10-31T02:35:39;10.82;;;8.95;;
24357;SDS011;13668;52.154;5.580;2022-10-31T02:41:24;10.75;;;8.85;;
24357;SDS011;13668;52.154;5.580;2022-10-31T02:43:58;13.60;;;8.52;;
24357;SDS011;13668;52.154;5.580;2022-10-31T02:47:00;11.38;;;9.30;;
24357;SDS011;13668;52.154;5.580;2022-10-31T02:49:23;11.48;;;9.23;;
24357;SDS011;13668;52.154;5.580;2022-10-31T02:51:53;11.45;;;8.88;;
24357;SDS011;13668;52.154;5.580;2022-10-31T02:54:23;14.95;;;9.80;;
24357;SDS011;13668;52.154;5.580;2022-10-31T02:56:50;12.57;;;9.45;;
24357;SDS011;13668;52.154;5.580;2022-10-31T02:59:18;13.18;;;8.88;;
24357;SDS011;13668;52.154;5.580;2022-10-31T03:04:17;10.85;;;8.65;;
24357;SDS011;13668;52.154;5.580;2022-10-31T03:06:54;11.48;;;8.73;;
24357;SDS011;13668;52.154;5.580;2022-10-31T03:09:33;12.60;;;9.43;;
24357;SDS011;13668;52.154;5.580;2022-10-31T03:12:04;9.18;;;8.20;;
24357;SDS011;13668;52.154;5.580;2022-10-31T03:17:02;12.68;;;8.30;;
24357;SDS011;13668;52.154;5.580;2022-10-31T03:19:39;9.48;;;8.38;;
24357;SDS011;13668;52.154;5.580;2022-10-31T03:24:41;10.35;;;9.15;;
24357;SDS011;13668;52.154;5.580;2022-10-31T03:27:07;10.88;;;8.27;;
24357;SDS011;13668;52.154;5.580;2022-10-31T03:29:36;9.80;;;8.75;;
24357;SDS011;13668;52.154;5.580;2022-10-31T03:32:06;11.98;;;8.48;;
24357;SDS011;13668;52.154;5.580;2022-10-31T03:34:33;10.02;;;8.10;;
24357;SDS011;13668;52.154;5.580;2022-10-31T03:37:01;12.93;;;8.00;;
24357;SDS011;13668;52.154;5.580;2022-10-31T03:39:32;7.60;;;6.90;;
24357;SDS011;13668;52.154;5.580;2022-10-31T03:42:04;11.10;;;7.90;;
24357;SDS011;13668;52.154;5.580;2022-10-31T03:44:30;8.98;;;7.88;;
24357;SDS011;13668;52.154;5.580;2022-10-31T03:46:58;12.25;;;8.73;;
24357;SDS011;13668;52.154;5.580;2022-10-31T03:49:24;11.43;;;8.80;;
24357;SDS011;13668;52.154;5.580;2022-10-31T03:51:54;9.27;;;8.27;;
24357;SDS011;13668;52.154;5.580;2022-10-31T03:57:14;10.70;;;8.90;;
24357;SDS011;13668;52.154;5.580;2022-10-31T03:59:42;12.25;;;8.55;;
24357;SDS011;13668;52.154;5.580;2022-10-31T04:02:13;10.60;;;9.38;;
24357;SDS011;13668;52.154;5.580;2022-10-31T04:04:40;13.90;;;9.05;;
24357;SDS011;13668;52.154;5.580;2022-10-31T04:07:07;12.30;;;8.88;;
24357;SDS011;13668;52.154;5.580;2022-10-31T04:09:35;12.63;;;8.35;;
24357;SDS011;13668;52.154;5.580;2022-10-31T04:12:02;10.15;;;7.78;;
24357;SDS011;13668;52.154;5.580;2022-10-31T04:14:30;12.57;;;8.57;;
24357;SDS011;13668;52.154;5.580;2022-10-31T04:16:57;9.73;;;7.80;;
24357;SDS011;13668;52.154;5.580;2022-10-31T04:19:23;9.90;;;7.38;;
24357;SDS011;13668;52.154;5.580;2022-10-31T04:21:49;9.77;;;8.50;;
24357;SDS011;13668;52.154;5.580;2022-10-31T04:24:15;10.80;;;8.50;;
24357;SDS011;13668;52.154;5.580;2022-10-31T04:26:41;10.57;;;8.07;;
24357;SDS011;13668;52.154;5.580;2022-10-31T04:29:07;13.25;;;9.15;;
24357;SDS011;13668;52.154;5.580;2022-10-31T04:31:33;13.02;;;9.02;;
24357;SDS011;13668;52.154;5.580;2022-10-31T04:33:59;11.70;;;8.90;;
24357;SDS011;13668;52.154;5.580;2022-10-31T04:36:25;10.40;;;8.45;;
24357;SDS011;13668;52.154;5.580;2022-10-31T04:38:51;10.85;;;8.95;;
24357;SDS011;13668;52.154;5.580;2022-10-31T04:41:17;10.75;;;8.77;;
24357;SDS011;13668;52.154;5.580;2022-10-31T04:43:43;10.65;;;8.45;;
24357;SDS011;13668;52.154;5.580;2022-10-31T04:46:09;9.57;;;8.23;;
24357;SDS011;13668;52.154;5.580;2022-10-31T04:48:35;10.07;;;8.52;;
24357;SDS011;13668;52.154;5.580;2022-10-31T04:51:01;10.13;;;8.32;;
24357;SDS011;13668;52.154;5.580;2022-10-31T04:53:27;9.80;;;8.00;;
24357;SDS011;13668;52.154;5.580;2022-10-31T04:55:53;9.18;;;8.27;;
24357;SDS011;13668;52.154;5.580;2022-10-31T04:58:20;12.15;;;8.45;;
24357;SDS011;13668;52.154;5.580;2022-10-31T05:00:46;11.43;;;9.20;;
24357;SDS011;13668;52.154;5.580;2022-10-31T05:03:11;12.38;;;8.75;;
24357;SDS011;13668;52.154;5.580;2022-10-31T05:05:37;10.02;;;8.65;;
24357;SDS011;13668;52.154;5.580;2022-10-31T05:08:03;9.77;;;8.07;;
24357;SDS011;13668;52.154;5.580;2022-10-31T05:10:30;11.48;;;8.40;;
24357;SDS011;13668;52.154;5.580;2022-10-31T05:12:57;9.68;;;8.40;;
24357;SDS011;13668;52.154;5.580;2022-10-31T05:15:24;12.85;;;8.68;;
24357;SDS011;13668;52.154;5.580;2022-10-31T05:17:50;11.82;;;8.70;;
24357;SDS011;13668;52.154;5.580;2022-10-31T05:20:20;12.90;;;8.90;;
24357;SDS011;13668;52.154;5.580;2022-10-31T05:22:48;9.30;;;8.38;;
24357;SDS011;13668;52.154;5.580;2022-10-31T05:25:14;11.05;;;8.65;;
24357;SDS011;13668;52.154;5.580;2022-10-31T05:27:40;9.52;;;8.45;;
24357;SDS011;13668;52.154;5.580;2022-10-31T05:30:07;11.75;;;9.70;;
24357;SDS011;13668;52.154;5.580;2022-10-31T05:32:39;10.32;;;9.18;;
24357;SDS011;13668;52.154;5.580;2022-10-31T05:35:06;11.10;;;8.80;;
24357;SDS011;13668;52.154;5.580;2022-10-31T05:37:33;9.75;;;8.25;;
24357;SDS011;13668;52.154;5.580;2022-10-31T05:40:00;12.20;;;7.70;;
24357;SDS011;13668;52.154;5.580;2022-10-31T05:42:25;11.73;;;8.18;;
24357;SDS011;13668;52.154;5.580;2022-10-31T05:44:51;10.73;;;8.40;;
24357;SDS011;13668;52.154;5.580;2022-10-31T05:47:17;8.57;;;7.70;;
24357;SDS011;13668;52.154;5.580;2022-10-31T05:49:43;10.95;;;7.93;;
24357;SDS011;13668;52.154;5.580;2022-10-31T05:52:09;11.45;;;8.57;;
24357;SDS011;13668;52.154;5.580;2022-10-31T05:54:35;12.82;;;8.90;;
24357;SDS011;13668;52.154;5.580;2022-10-31T05:57:01;10.95;;;9.00;;
24357;SDS011;13668;52.154;5.580;2022-10-31T05:59:27;10.25;;;9.05;;
24357;SDS011;13668;52.154;5.580;2022-10-31T06:01:53;14.43;;;10.13;;
24357;SDS011;13668;52.154;5.580;2022-10-31T06:04:19;14.00;;;11.50;;
24357;SDS011;13668;52.154;5.580;2022-10-31T06:06:45;14.18;;;11.10;;
24357;SDS011;13668;52.154;5.580;2022-10-31T06:09:11;14.60;;;10.75;;
24357;SDS011;13668;52.154;5.580;2022-10-31T06:11:37;11.88;;;9.32;;
24357;SDS011;13668;52.154;5.580;2022-10-31T06:14:03;13.10;;;9.55;;
24357;SDS011;13668;52.154;5.580;2022-10-31T06:16:29;11.48;;;8.63;;
24357;SDS011;13668;52.154;5.580;2022-10-31T06:18:55;13.20;;;9.18;;
24357;SDS011;13668;52.154;5.580;2022-10-31T06:21:21;12.18;;;9.05;;
24357;SDS011;13668;52.154;5.580;2022-10-31T06:23:47;13.05;;;9.35;;
24357;SDS011;13668;52.154;5.580;2022-10-31T06:26:13;13.05;;;11.27;;
24357;SDS011;13668;52.154;5.580;2022-10-31T06:28:39;11.32;;;9.40;;
24357;SDS011;13668;52.154;5.580;2022-10-31T06:31:05;14.25;;;9.52;;
24357;SDS011;13668;52.154;5.580;2022-10-31T06:33:32;13.73;;;10.27;;
24357;SDS011;13668;52.154;5.580;2022-10-31T06:35:58;12.65;;;10.18;;
24357;SDS011;13668;52.154;5.580;2022-10-31T06:38:25;13.63;;;10.07;;
24357;SDS011;13668;52.154;5.580;2022-10-31T06:40:51;13.82;;;11.07;;
24357;SDS011;13668;52.154;5.580;2022-10-31T06:43:17;13.25;;;10.27;;
24357;SDS011;13668;52.154;5.580;2022-10-31T06:45:43;14.15;;;10.75;;
24357;SDS011;13668;52.154;5.580;2022-10-31T06:48:09;16.00;;;11.18;;
24357;SDS011;13668;52.154;5.580;2022-10-31T06:50:35;16.60;;;11.65;;
24357;SDS011;13668;52.154;5.580;2022-10-31T06:53:01;14.85;;;11.75;;
24357;SDS011;13668;52.154;5.580;2022-10-31T06:55:27;14.85;;;11.70;;
24357;SDS011;13668;52.154;5.580;2022-10-31T06:57:54;13.07;;;11.10;;
24357;SDS011;13668;52.154;5.580;2022-10-31T07:00:20;13.65;;;11.50;;
24357;SDS011;13668;52.154;5.580;2022-10-31T07:02:56;14.75;;;10.82;;
24357;SDS011;13668;52.154;5.580;2022-10-31T07:05:22;16.08;;;12.00;;
24357;SDS011;13668;52.154;5.580;2022-10-31T07:07:51;15.55;;;12.05;;
24357;SDS011;13668;52.154;5.580;2022-10-31T07:10:18;15.85;;;12.48;;
24357;SDS011;13668;52.154;5.580;2022-10-31T07:12:47;15.98;;;12.55;;
24357;SDS011;13668;52.154;5.580;2022-10-31T07:15:13;13.77;;;12.15;;
24357;SDS011;13668;52.154;5.580;2022-10-31T07:17:38;18.85;;;13.80;;
24357;SDS011;13668;52.154;5.580;2022-10-31T07:20:05;13.63;;;11.63;;
24357;SDS011;13668;52.154;5.580;2022-10-31T07:22:34;16.50;;;12.98;;
24357;SDS011;13668;52.154;5.580;2022-10-31T07:25:00;17.20;;;13.50;;
24357;SDS011;13668;52.154;5.580;2022-10-31T07:27:26;17.35;;;13.43;;
24357;SDS011;13668;52.154;5.580;2022-10-31T07:29:52;16.20;;;12.60;;
24357;SDS011;13668;52.154;5.580;2022-10-31T07:32:18;16.83;;;14.18;;
24357;SDS011;13668;52.154;5.580;2022-10-31T07:34:44;16.08;;;12.90;;
24357;SDS011;13668;52.154;5.580;2022-10-31T07:37:10;16.58;;;13.88;;
24357;SDS011;13668;52.154;5.580;2022-10-31T07:39:39;16.95;;;13.90;;
24357;SDS011;13668;52.154;5.580;2022-10-31T07:42:05;15.60;;;13.90;;
24357;SDS011;13668;52.154;5.580;2022-10-31T07:44:31;18.23;;;14.60;;
24357;SDS011;13668;52.154;5.580;2022-10-31T07:46:57;16.70;;;13.93;;
24357;SDS011;13668;52.154;5.580;2022-10-31T07:49:23;16.90;;;13.65;;
24357;SDS011;13668;52.154;5.580;2022-10-31T07:51:50;15.30;;;13.57;;
24357;SDS011;13668;52.154;5.580;2022-10-31T07:54:16;18.23;;;13.65;;
24357;SDS011;13668;52.154;5.580;2022-10-31T07:56:42;14.73;;;12.10;;
24357;SDS011;13668;52.154;5.580;2022-10-31T07:59:08;16.65;;;14.27;;
24357;SDS011;13668;52.154;5.580;2022-10-31T08:01:34;15.48;;;13.40;;
24357;SDS011;13668;52.154;5.580;2022-10-31T08:04:00;18.45;;;13.32;;
24357;SDS011;13668;52.154;5.580;2022-10-31T08:06:26;15.68;;;13.82;;
24357;SDS011;13668;52.154;5.580;2022-10-31T08:08:52;15.98;;;14.10;;
24357;SDS011;13668;52.154;5.580;2022-10-31T08:11:18;16.58;;;13.93;;
24357;SDS011;13668;52.154;5.580;2022-10-31T08:13:44;18.65;;;14.38;;
24357;SDS011;13668;52.154;5.580;2022-10-31T08:16:12;14.32;;;12.82;;
24357;SDS011;13668;52.154;5.580;2022-10-31T08:18:38;18.92;;;13.18;;
24357;SDS011;13668;52.154;5.580;2022-10-31T08:21:06;17.17;;;13.80;;
24357;SDS011;13668;52.154;5.580;2022-10-31T08:23:32;22.38;;;14.15;;
24357;SDS011;13668;52.154;5.580;2022-10-31T08:25:59;18.45;;;14.65;;
24357;SDS011;13668;52.154;5.580;2022-10-31T08:28:25;15.40;;;13.60;;
24357;SDS011;13668;52.154;5.580;2022-10-31T08:30:51;18.13;;;14.52;;
24357;SDS011;13668;52.154;5.580;2022-10-31T08:33:17;19.45;;;14.55;;
24357;SDS011;13668;52.154;5.580;2022-10-31T08:35:43;19.45;;;15.27;;
24357;SDS011;13668;52.154;5.580;2022-10-31T08:38:10;18.48;;;15.05;;
24357;SDS011;13668;52.154;5.580;2022-10-31T08:40:37;19.27;;;15.23;;
24357;SDS011;13668;52.154;5.580;2022-10-31T08:43:04;20.73;;;16.35;;
24357;SDS011;13668;52.154;5.580;2022-10-31T08:45:31;20.75;;;17.85;;
24357;SDS011;13668;52.154;5.580;2022-10-31T08:47:58;25.35;;;18.60;;
24357;SDS011;13668;52.154;5.580;2022-10-31T08:50:25;28.02;;;19.65;;
24357;SDS011;13668;52.154;5.580;2022-10-31T08:52:50;28.42;;;19.90;;
24357;SDS011;13668;52.154;5.580;2022-10-31T08:55:16;24.60;;;18.08;;
24357;SDS011;13668;52.154;5.580;2022-10-31T08:57:42;24.92;;;19.30;;
24357;SDS011;13668;52.154;5.580;2022-10-31T09:00:09;30.52;;;20.27;;
24357;SDS011;13668;52.154;5.580;2022-10-31T09:02:35;27.73;;;20.42;;
24357;SDS011;13668;52.154;5.580;2022-10-31T09:05:02;22.92;;;19.15;;
24357;SDS011;13668;52.154;5.580;2022-10-31T09:07:28;26.63;;;18.35;;
24357;SDS011;13668;52.154;5.580;2022-10-31T09:09:56;26.73;;;18.30;;
24357;SDS011;13668;52.154;5.580;2022-10-31T09:12:22;26.83;;;16.88;;
24357;SDS011;13668;52.154;5.580;2022-10-31T09:14:48;22.65;;;16.73;;
24357;SDS011;13668;52.154;5.580;2022-10-31T09:17:14;22.83;;;17.77;;
24357;SDS011;13668;52.154;5.580;2022-10-31T09:19:40;28.13;;;17.15;;
24357;SDS011;13668;52.154;5.580;2022-10-31T09:22:06;18.85;;;16.20;;
24357;SDS011;13668;52.154;5.580;2022-10-31T09:24:32;20.88;;;16.48;;
24357;SDS011;13668;52.154;5.580;2022-10-31T09:26:58;22.60;;;16.63;;
24357;SDS011;13668;52.154;5.580;2022-10-31T09:29:24;21.23;;;15.52;;
24357;SDS011;13668;52.154;5.580;2022-10-31T09:31:50;23.33;;;16.67;;
24357;SDS011;13668;52.154;5.580;2022-10-31T09:34:16;22.98;;;14.82;;
24357;SDS011;13668;52.154;5.580;2022-10-31T09:36:42;17.33;;;14.50;;
24357;SDS011;13668;52.154;5.580;2022-10-31T09:39:09;19.02;;;14.15;;
24357;SDS011;13668;52.154;5.580;2022-10-31T09:41:46;17.10;;;15.07;;
24357;SDS011;13668;52.154;5.580;2022-10-31T09:50:01;17.63;;;13.55;;
24357;SDS011;13668;52.154;5.580;2022-10-31T09:52:11;15.32;;;12.82;;
24357;SDS011;13668;52.154;5.580;2022-10-31T09:54:41;18.75;;;13.15;;
24357;SDS011;13668;52.154;5.580;2022-10-31T09:57:12;17.27;;;12.98;;
24357;SDS011;13668;52.154;5.580;2022-10-31T09:59:39;18.88;;;14.45;;
24357;SDS011;13668;52.154;5.580;2022-10-31T10:02:12;19.20;;;14.27;;
24357;SDS011;13668;52.154;5.580;2022-10-31T10:04:48;20.05;;;15.05;;
24357;SDS011;13668;52.154;5.580;2022-10-31T10:10:12;20.10;;;14.98;;
24357;SDS011;13668;52.154;5.580;2022-10-31T10:12:43;18.65;;;14.15;;
24357;SDS011;13668;52.154;5.580;2022-10-31T10:17:49;20.58;;;14.95;;
24357;SDS011;13668;52.154;5.580;2022-10-31T10:22:54;18.58;;;13.40;;
24357;SDS011;13668;52.154;5.580;2022-10-31T10:25:21;18.27;;;14.40;;
24357;SDS011;13668;52.154;5.580;2022-10-31T10:27:58;19.55;;;13.38;;
24357;SDS011;13668;52.154;5.580;2022-10-31T10:31:13;14.38;;;12.30;;
24357;SDS011;13668;52.154;5.580;2022-10-31T10:33:22;16.63;;;12.90;;
24357;SDS011;13668;52.154;5.580;2022-10-31T10:35:53;16.35;;;12.25;;
24357;SDS011;13668;52.154;5.580;2022-10-31T10:39:07;15.95;;;13.57;;
24357;SDS011;13668;52.154;5.580;2022-10-31T10:41:08;16.75;;;12.50;;
24357;SDS011;13668;52.154;5.580;2022-10-31T10:43:36;17.85;;;12.73;;
24357;SDS011;13668;52.154;5.580;2022-10-31T10:51:56;20.17;;;14.00;;
24357;SDS011;13668;52.154;5.580;2022-10-31T10:59:48;23.40;;;15.48;;
24357;SDS011;13668;52.154;5.580;2022-10-31T11:02:19;28.33;;;15.75;;
24357;SDS011;13668;52.154;5.580;2022-10-31T11:04:47;27.73;;;14.10;;
24357;SDS011;13668;52.154;5.580;2022-10-31T11:07:15;24.20;;;15.05;;
24357;SDS011;13668;52.154;5.580;2022-10-31T11:09:41;23.92;;;14.45;;
24357;SDS011;13668;52.154;5.580;2022-10-31T11:12:15;20.88;;;14.43;;
24357;SDS011;13668;52.154;5.580;2022-10-31T11:14:52;21.15;;;14.13;;
24357;SDS011;13668;52.154;5.580;2022-10-31T11:17:28;23.13;;;14.55;;
24357;SDS011;13668;52.154;5.580;2022-10-31T11:20:06;23.33;;;14.40;;
24357;SDS011;13668;52.154;5.580;2022-10-31T11:22:32;31.00;;;15.68;;
24357;SDS011;13668;52.154;5.580;2022-10-31T11:24:58;27.33;;;16.75;;
24357;SDS011;13668;52.154;5.580;2022-10-31T11:27:24;24.80;;;15.63;;
24357;SDS011;13668;52.154;5.580;2022-10-31T11:29:51;31.27;;;17.27;;
24357;SDS011;13668;52.154;5.580;2022-10-31T11:32:24;25.23;;;17.55;;
24357;SDS011;13668;52.154;5.580;2022-10-31T11:34:51;29.23;;;16.92;;
24357;SDS011;13668;52.154;5.580;2022-10-31T11:37:20;29.17;;;18.05;;
24357;SDS011;13668;52.154;5.580;2022-10-31T11:39:48;24.67;;;16.67;;
24357;SDS011;13668;52.154;5.580;2022-10-31T11:42:18;30.10;;;18.05;;
24357;SDS011;13668;52.154;5.580;2022-10-31T11:44:45;38.33;;;18.73;;
24357;SDS011;13668;52.154;5.580;2022-10-31T11:47:12;26.90;;;17.42;;
24357;SDS011;13668;52.154;5.580;2022-10-31T11:49:39;24.63;;;16.95;;
24357;SDS011;13668;52.154;5.580;2022-10-31T11:52:07;25.60;;;16.67;;
24357;SDS011;13668;52.154;5.580;2022-10-31T11:54:46;27.23;;;16.65;;
24357;SDS011;13668;52.154;5.580;2022-10-31T11:59:52;25.27;;;16.65;;
24357;SDS011;13668;52.154;5.580;2022-10-31T12:02:19;25.25;;;17.48;;
24357;SDS011;13668;52.154;5.580;2022-10-31T12:04:47;27.67;;;17.35;;
24357;SDS011;13668;52.154;5.580;2022-10-31T12:07:14;29.20;;;17.33;;
24357;SDS011;13668;52.154;5.580;2022-10-31T12:09:40;35.42;;;17.92;;
24357;SDS011;13668;52.154;5.580;2022-10-31T12:12:26;30.52;;;16.45;;
24357;SDS011;13668;52.154;5.580;2022-10-31T12:15:09;29.98;;;17.70;;
24357;SDS011;13668;52.154;5.580;2022-10-31T12:20:16;34.17;;;19.38;;
24357;SDS011;13668;52.154;5.580;2022-10-31T12:25:51;27.80;;;19.42;;
24357;SDS011;13668;52.154;5.580;2022-10-31T12:31:26;34.47;;;19.90;;
24357;SDS011;13668;52.154;5.580;2022-10-31T12:33:47;35.05;;;22.00;;
24357;SDS011;13668;52.154;5.580;2022-10-31T12:36:19;36.55;;;21.42;;
24357;SDS011;13668;52.154;5.580;2022-10-31T12:52:03;40.35;;;22.80;;
24357;SDS011;13668;52.154;5.580;2022-10-31T12:57:25;36.63;;;23.45;;
24357;SDS011;13668;52.154;5.580;2022-10-31T13:02:20;40.85;;;25.02;;
24357;SDS011;13668;52.154;5.580;2022-10-31T13:04:53;46.25;;;25.63;;
24357;SDS011;13668;52.154;5.580;2022-10-31T13:07:23;44.90;;;27.00;;
24357;SDS011;13668;52.154;5.580;2022-10-31T13:09:54;45.50;;;26.40;;
24357;SDS011;13668;52.154;5.580;2022-10-31T13:12:22;47.03;;;26.25;;
24357;SDS011;13668;52.154;5.580;2022-10-31T13:14:49;43.25;;;26.98;;
24357;SDS011;13668;52.154;5.580;2022-10-31T13:22:44;43.38;;;26.08;;
24357;SDS011;13668;52.154;5.580;2022-10-31T13:27:48;37.72;;;24.05;;
24357;SDS011;13668;52.154;5.580;2022-10-31T13:30:16;42.15;;;24.50;;
24357;SDS011;13668;52.154;5.580;2022-10-31T13:32:45;46.33;;;27.25;;
24357;SDS011;13668;52.154;5.580;2022-10-31T13:35:14;42.35;;;26.27;;
24357;SDS011;13668;52.154;5.580;2022-10-31T13:37:44;42.15;;;25.13;;
24357;SDS011;13668;52.154;5.580;2022-10-31T13:40:14;40.45;;;24.35;;
24357;SDS011;13668;52.154;5.580;2022-10-31T13:45:14;46.83;;;25.77;;
24357;SDS011;13668;52.154;5.580;2022-10-31T13:47:41;36.10;;;25.10;;
24357;SDS011;13668;52.154;5.580;2022-10-31T13:52:46;45.80;;;25.75;;
24357;SDS011;13668;52.154;5.580;2022-10-31T13:57:57;44.33;;;26.92;;
24357;SDS011;13668;52.154;5.580;2022-10-31T14:00:24;41.65;;;26.00;;
24357;SDS011;13668;52.154;5.580;2022-10-31T14:02:54;42.42;;;25.58;;
24357;SDS011;13668;52.154;5.580;2022-10-31T14:05:22;43.60;;;25.30;;
24357;SDS011;13668;52.154;5.580;2022-10-31T14:07:49;41.95;;;25.50;;
24357;SDS011;13668;52.154;5.580;2022-10-31T14:12:44;46.00;;;25.60;;
24357;SDS011;13668;52.154;5.580;2022-10-31T14:15:13;38.42;;;24.25;;
24357;SDS011;13668;52.154;5.580;2022-10-31T14:22:58;42.58;;;24.73;;
24357;SDS011;13668;52.154;5.580;2022-10-31T14:25:24;39.75;;;23.17;;
24357;SDS011;13668;52.154;5.580;2022-10-31T14:27:58;40.97;;;24.88;;
24357;SDS011;13668;52.154;5.580;2022-10-31T14:30:24;39.75;;;23.38;;
24357;SDS011;13668;52.154;5.580;2022-10-31T14:32:58;45.70;;;25.27;;
24357;SDS011;13668;52.154;5.580;2022-10-31T14:35:27;41.00;;;23.13;;
24357;SDS011;13668;52.154;5.580;2022-10-31T14:38:02;40.97;;;24.38;;
24357;SDS011;13668;52.154;5.580;2022-10-31T14:43:35;36.92;;;23.48;;
24357;SDS011;13668;52.154;5.580;2022-10-31T14:51:26;39.63;;;22.88;;
24357;SDS011;13668;52.154;5.580;2022-10-31T14:53:54;41.50;;;22.10;;
24357;SDS011;13668;52.154;5.580;2022-10-31T14:56:22;36.20;;;22.63;;
24357;SDS011;13668;52.154;5.580;2022-10-31T14:58:49;40.35;;;22.27;;
24357;SDS011;13668;52.154;5.580;2022-10-31T15:01:28;38.13;;;21.48;;
24357;SDS011;13668;52.154;5.580;2022-10-31T15:04:13;39.05;;;22.60;;
24357;SDS011;13668;52.154;5.580;2022-10-31T15:06:41;33.55;;;20.98;;
24357;SDS011;13668;52.154;5.580;2022-10-31T15:09:25;35.35;;;21.08;;
24357;SDS011;13668;52.154;5.580;2022-10-31T15:11:51;34.80;;;20.95;;
24357;SDS011;13668;52.154;5.580;2022-10-31T15:14:21;36.72;;;21.65;;
24357;SDS011;13668;52.154;5.580;2022-10-31T15:16:48;36.10;;;20.73;;
24357;SDS011;13668;52.154;5.580;2022-10-31T15:19:16;35.90;;;20.98;;
24357;SDS011;13668;52.154;5.580;2022-10-31T15:21:45;37.78;;;21.08;;
24357;SDS011;13668;52.154;5.580;2022-10-31T15:24:11;35.15;;;20.85;;
24357;SDS011;13668;52.154;5.580;2022-10-31T15:26:43;33.05;;;20.17;;
24357;SDS011;13668;52.154;5.580;2022-10-31T15:29:14;38.97;;;21.13;;
24357;SDS011;13668;52.154;5.580;2022-10-31T15:31:56;35.97;;;21.15;;
24357;SDS011;13668;52.154;5.580;2022-10-31T15:34:25;39.28;;;22.67;;
24357;SDS011;13668;52.154;5.580;2022-10-31T15:36:52;36.45;;;20.42;;
24357;SDS011;13668;52.154;5.580;2022-10-31T15:39:18;38.38;;;22.58;;
24357;SDS011;13668;52.154;5.580;2022-10-31T15:41:53;37.65;;;21.85;;
24357;SDS011;13668;52.154;5.580;2022-10-31T15:44:29;33.58;;;20.13;;
24357;SDS011;13668;52.154;5.580;2022-10-31T15:47:01;33.58;;;20.27;;
24357;SDS011;13668;52.154;5.580;2022-10-31T15:49:32;33.38;;;20.52;;
24357;SDS011;13668;52.154;5.580;2022-10-31T15:52:02;36.15;;;22.75;;
24357;SDS011;13668;52.154;5.580;2022-10-31T15:54:29;37.20;;;22.55;;
24357;SDS011;13668;52.154;5.580;2022-10-31T15:56:55;33.88;;;22.02;;
24357;SDS011;13668;52.154;5.580;2022-10-31T15:59:22;35.00;;;21.83;;
24357;SDS011;13668;52.154;5.580;2022-10-31T16:02:24;38.28;;;22.20;;
24357;SDS011;13668;52.154;5.580;2022-10-31T16:04:52;38.55;;;22.52;;
24357;SDS011;13668;52.154;5.580;2022-10-31T16:07:18;38.55;;;22.38;;
24357;SDS011;13668;52.154;5.580;2022-10-31T16:12:16;40.20;;;21.73;;
24357;SDS011;13668;52.154;5.580;2022-10-31T16:14:42;36.25;;;21.00;;
24357;SDS011;13668;52.154;5.580;2022-10-31T16:17:12;37.38;;;22.67;;
24357;SDS011;13668;52.154;5.580;2022-10-31T16:20:01;39.90;;;22.17;;
24357;SDS011;13668;52.154;5.580;2022-10-31T16:22:38;33.25;;;22.30;;
24357;SDS011;13668;52.154;5.580;2022-10-31T16:27:31;42.75;;;25.73;;
24357;SDS011;13668;52.154;5.580;2022-10-31T16:29:59;41.90;;;27.13;;
24357;SDS011;13668;52.154;5.580;2022-10-31T16:35:18;47.50;;;27.27;;